SAS1706 EKCH-EFHK
Flight info
| Callsign | SAS1706 |
|---|---|
| Flight time | N/A |
| Altitude | 37000 |
| Route | KEMAX T408 OTVEB DCT ALAMI DCT OKEVU DCT EVADI Y370 DIVAM |
| Aircraft | A20N/M-SDE2E3FGHIRWXY/LB1 |
Departure
| Time | 2026-04-24 16:34 |
|---|---|
| Airport | Copenhagen Kastrup Airport (EKCH) |
Arrival
| Time | N/A |
|---|---|
| Airport | Helsinki Vantaa Airport (EFHK) |
| Time | Latitude | Longitude | Altitude | Speed | Heading |
|---|---|---|---|---|---|
| 2026-04-24 16:22 | 55.62711 | 12.64456 | 18 ft | 0 kts | 102° |
| 2026-04-24 16:23 | 55.62714 | 12.64434 | 18 ft | 2 kts | 101° |
| 2026-04-24 16:23 | 55.62716 | 12.64409 | 18 ft | 2 kts | 102° |
| 2026-04-24 16:24 | 55.62730 | 12.64369 | 18 ft | 2 kts | 175° |
| 2026-04-24 16:24 | 55.62739 | 12.64370 | 19 ft | 1 kts | 206° |
| 2026-04-24 16:24 | 55.62745 | 12.64377 | 18 ft | 0 kts | 208° |
| 2026-04-24 16:27 | 55.62745 | 12.64376 | 18 ft | 0 kts | 208° |
| 2026-04-24 16:27 | 55.62724 | 12.64358 | 18 ft | 5 kts | 207° |
| 2026-04-24 16:27 | 55.62677 | 12.64323 | 18 ft | 9 kts | 202° |
| 2026-04-24 16:27 | 55.62608 | 12.64262 | 17 ft | 12 kts | 212° |
| 2026-04-24 16:28 | 55.62524 | 12.64204 | 16 ft | 14 kts | 163° |
| 2026-04-24 16:28 | 55.62473 | 12.64334 | 15 ft | 13 kts | 126° |
| 2026-04-24 16:28 | 55.62359 | 12.64601 | 16 ft | 14 kts | 128° |
| 2026-04-24 16:29 | 55.62302 | 12.64757 | 15 ft | 14 kts | 133° |
| 2026-04-24 16:29 | 55.62210 | 12.64766 | 15 ft | 14 kts | 208° |
| 2026-04-24 16:29 | 55.62038 | 12.64572 | 15 ft | 15 kts | 214° |
| 2026-04-24 16:30 | 55.61834 | 12.64530 | 15 ft | 15 kts | 170° |
| 2026-04-24 16:30 | 55.61726 | 12.64564 | 15 ft | 16 kts | 171° |
| 2026-04-24 16:30 | 55.61629 | 12.64507 | 15 ft | 14 kts | 215° |
| 2026-04-24 16:31 | 55.61539 | 12.64408 | 15 ft | 15 kts | 212° |
| 2026-04-24 16:31 | 55.61449 | 12.64304 | 16 ft | 15 kts | 214° |
| 2026-04-24 16:31 | 55.61360 | 12.64202 | 16 ft | 15 kts | 212° |
| 2026-04-24 16:31 | 55.61266 | 12.64095 | 16 ft | 15 kts | 213° |
| 2026-04-24 16:32 | 55.61204 | 12.64025 | 16 ft | 16 kts | 213° |
| 2026-04-24 16:32 | 55.61077 | 12.63876 | 17 ft | 16 kts | 212° |
| 2026-04-24 16:32 | 55.60978 | 12.63764 | 16 ft | 16 kts | 213° |
| 2026-04-24 16:32 | 55.60880 | 12.63651 | 16 ft | 17 kts | 214° |
| 2026-04-24 16:33 | 55.60803 | 12.63584 | 15 ft | 10 kts | 171° |
| 2026-04-24 16:33 | 55.60747 | 12.63667 | 15 ft | 11 kts | 131° |
| 2026-04-24 16:33 | 55.60695 | 12.63777 | 15 ft | 12 kts | 122° |
| 2026-04-24 16:33 | 55.60731 | 12.63957 | 15 ft | 29 kts | 40° |
| 2026-04-24 16:34 | 55.61077 | 12.64491 | 15 ft | 101 kts | 43° |
| 2026-04-24 16:34 | 55.61760 | 12.65540 | 23 ft | 157 kts | 37° |
| 2026-04-24 16:34 | 55.62529 | 12.66747 | 275 ft | 138 kts | 38° |
| 2026-04-24 16:34 | 55.63299 | 12.67977 | 663 ft | 161 kts | 38° |
| 2026-04-24 16:35 | 55.64137 | 12.69307 | 1471 ft | 165 kts | 37° |
| 2026-04-24 16:35 | 55.64978 | 12.70642 | 2275 ft | 166 kts | 36° |
| 2026-04-24 16:35 | 55.65876 | 12.72000 | 2785 ft | 179 kts | 35° |
| 2026-04-24 16:35 | 55.66880 | 12.73480 | 3271 ft | 196 kts | 35° |
| 2026-04-24 16:36 | 55.67956 | 12.75071 | 3770 ft | 213 kts | 35° |
| 2026-04-24 16:36 | 55.69147 | 12.76837 | 4221 ft | 235 kts | 36° |
| 2026-04-24 16:36 | 55.70447 | 12.78774 | 4796 ft | 254 kts | 36° |
| 2026-04-24 16:36 | 55.71778 | 12.80888 | 5552 ft | 264 kts | 40° |
| 2026-04-24 16:37 | 55.73048 | 12.83217 | 6479 ft | 268 kts | 42° |
| 2026-04-24 16:37 | 55.74326 | 12.85628 | 7373 ft | 272 kts | 41° |
| 2026-04-24 16:37 | 55.75180 | 12.87236 | 7941 ft | 274 kts | 41° |
| 2026-04-24 16:37 | 55.76929 | 12.90501 | 9091 ft | 279 kts | 40° |
| 2026-04-24 16:38 | 55.78260 | 12.92965 | 9891 ft | 283 kts | 40° |
| 2026-04-24 16:38 | 55.79634 | 12.95500 | 10589 ft | 292 kts | 39° |
| 2026-04-24 16:38 | 55.81078 | 12.98150 | 11024 ft | 309 kts | 39° |
| 2026-04-24 16:38 | 55.82603 | 13.00950 | 11559 ft | 321 kts | 39° |
| 2026-04-24 16:39 | 55.84152 | 13.03810 | 12283 ft | 326 kts | 40° |
| 2026-04-24 16:39 | 55.85739 | 13.06751 | 13031 ft | 330 kts | 39° |
| 2026-04-24 16:39 | 55.87317 | 13.09676 | 13739 ft | 334 kts | 39° |
| 2026-04-24 16:39 | 55.88931 | 13.12666 | 14438 ft | 339 kts | 39° |
| 2026-04-24 16:40 | 55.90561 | 13.15689 | 15119 ft | 343 kts | 39° |
| 2026-04-24 16:40 | 55.92218 | 13.18768 | 15774 ft | 347 kts | 39° |
| 2026-04-24 16:40 | 55.93893 | 13.21881 | 16436 ft | 351 kts | 39° |
| 2026-04-24 16:40 | 55.95579 | 13.25020 | 17074 ft | 356 kts | 38° |
| 2026-04-24 16:41 | 55.97274 | 13.28195 | 17710 ft | 361 kts | 40° |
| 2026-04-24 16:41 | 55.98917 | 13.31588 | 18329 ft | 366 kts | 42° |
| 2026-04-24 16:41 | 56.00541 | 13.35104 | 18956 ft | 370 kts | 43° |
| 2026-04-24 16:41 | 56.02193 | 13.38698 | 19591 ft | 373 kts | 42° |
| 2026-04-24 16:42 | 56.03838 | 13.42267 | 20229 ft | 375 kts | 42° |
| 2026-04-24 16:42 | 56.05494 | 13.45841 | 20836 ft | 378 kts | 42° |
| 2026-04-24 16:42 | 56.07158 | 13.49428 | 21431 ft | 380 kts | 41° |
| 2026-04-24 16:42 | 56.08856 | 13.53081 | 22010 ft | 383 kts | 41° |
| 2026-04-24 16:43 | 56.10552 | 13.56730 | 22583 ft | 385 kts | 41° |
| 2026-04-24 16:43 | 56.12263 | 13.60395 | 23155 ft | 388 kts | 41° |
| 2026-04-24 16:43 | 56.13987 | 13.64093 | 23737 ft | 390 kts | 41° |
| 2026-04-24 16:43 | 56.15739 | 13.67864 | 24269 ft | 393 kts | 42° |
| 2026-04-24 16:44 | 56.17471 | 13.71613 | 24709 ft | 398 kts | 42° |
| 2026-04-24 16:44 | 56.19250 | 13.75469 | 25160 ft | 402 kts | 42° |
| 2026-04-24 16:44 | 56.21023 | 13.79320 | 25627 ft | 405 kts | 42° |
| 2026-04-24 16:44 | 56.22828 | 13.83248 | 26107 ft | 408 kts | 42° |
| 2026-04-24 16:45 | 56.24619 | 13.87150 | 26529 ft | 411 kts | 41° |
| 2026-04-24 16:45 | 56.26444 | 13.91127 | 26898 ft | 416 kts | 41° |
| 2026-04-24 16:45 | 56.28275 | 13.95125 | 27324 ft | 419 kts | 42° |
| 2026-04-24 16:45 | 56.30130 | 13.99187 | 27774 ft | 420 kts | 41° |
| 2026-04-24 16:46 | 56.31983 | 14.03246 | 28152 ft | 424 kts | 41° |
| 2026-04-24 16:46 | 56.33849 | 14.07342 | 28519 ft | 427 kts | 41° |
| 2026-04-24 16:46 | 56.35720 | 14.11458 | 28900 ft | 430 kts | 41° |
| 2026-04-24 16:46 | 56.37629 | 14.15660 | 29250 ft | 433 kts | 41° |
| 2026-04-24 16:47 | 56.39523 | 14.19842 | 29612 ft | 435 kts | 41° |
| 2026-04-24 16:47 | 56.41447 | 14.24092 | 29956 ft | 438 kts | 41° |
| 2026-04-24 16:47 | 56.43382 | 14.28375 | 30271 ft | 441 kts | 41° |
| 2026-04-24 16:47 | 56.45312 | 14.32659 | 30565 ft | 444 kts | 41° |
| 2026-04-24 16:48 | 56.47255 | 14.36975 | 30955 ft | 444 kts | 41° |
| 2026-04-24 16:48 | 56.49172 | 14.41246 | 31390 ft | 443 kts | 41° |
| 2026-04-24 16:48 | 56.51094 | 14.45537 | 31785 ft | 442 kts | 41° |
| 2026-04-24 16:48 | 56.53038 | 14.49882 | 32138 ft | 442 kts | 41° |
| 2026-04-24 16:49 | 56.54956 | 14.54174 | 32518 ft | 441 kts | 41° |
| 2026-04-24 16:49 | 56.56857 | 14.58438 | 32901 ft | 439 kts | 41° |
| 2026-04-24 16:49 | 56.58785 | 14.62771 | 33214 ft | 439 kts | 41° |
| 2026-04-24 16:49 | 56.60690 | 14.67057 | 33528 ft | 438 kts | 43° |
| 2026-04-24 16:50 | 56.61935 | 14.69871 | 33718 ft | 438 kts | 43° |
| 2026-04-24 16:50 | 56.64485 | 14.75648 | 34024 ft | 440 kts | 43° |
| 2026-04-24 16:50 | 56.66385 | 14.79955 | 34284 ft | 440 kts | 43° |
| 2026-04-24 16:50 | 56.68297 | 14.84294 | 34518 ft | 439 kts | 43° |
| 2026-04-24 16:51 | 56.70197 | 14.88609 | 34766 ft | 438 kts | 43° |
| 2026-04-24 16:51 | 56.72084 | 14.92903 | 35046 ft | 436 kts | 43° |
| 2026-04-24 16:51 | 56.73955 | 14.97166 | 35289 ft | 436 kts | 44° |
| 2026-04-24 16:51 | 56.75859 | 15.01508 | 35448 ft | 437 kts | 44° |
| 2026-04-24 16:52 | 56.77751 | 15.05837 | 35625 ft | 438 kts | 44° |
| 2026-04-24 16:52 | 56.79621 | 15.10117 | 35789 ft | 439 kts | 44° |
| 2026-04-24 16:52 | 56.81529 | 15.14492 | 35970 ft | 439 kts | 44° |
| 2026-04-24 16:52 | 56.83411 | 15.18822 | 36216 ft | 439 kts | 45° |
| 2026-04-24 16:53 | 56.85300 | 15.23180 | 36394 ft | 440 kts | 44° |
| 2026-04-24 16:53 | 56.87195 | 15.27552 | 36572 ft | 441 kts | 45° |
| 2026-04-24 16:53 | 56.89086 | 15.31917 | 36743 ft | 443 kts | 45° |
| 2026-04-24 16:53 | 56.91004 | 15.36362 | 36869 ft | 444 kts | 45° |
| 2026-04-24 16:54 | 56.94798 | 15.45177 | 36863 ft | 444 kts | 45° |
| 2026-04-24 16:54 | 56.98599 | 15.54046 | 36877 ft | 444 kts | 45° |
| 2026-04-24 16:55 | 57.02401 | 15.62941 | 36875 ft | 446 kts | 45° |
| 2026-04-24 16:55 | 57.06206 | 15.71897 | 36875 ft | 446 kts | 46° |
| 2026-04-24 16:56 | 57.10011 | 15.80899 | 36877 ft | 446 kts | 46° |
| 2026-04-24 16:56 | 57.13813 | 15.89848 | 36881 ft | 447 kts | 46° |
| 2026-04-24 16:57 | 57.17601 | 15.98799 | 36876 ft | 445 kts | 46° |
| 2026-04-24 16:57 | 57.21375 | 16.07778 | 36879 ft | 445 kts | 46° |
| 2026-04-24 16:58 | 57.25157 | 16.16820 | 36881 ft | 446 kts | 46° |
| 2026-04-24 16:58 | 57.28909 | 16.25832 | 36884 ft | 445 kts | 46° |
| 2026-04-24 16:59 | 57.32652 | 16.34855 | 36883 ft | 444 kts | 46° |
| 2026-04-24 17:00 | 57.38277 | 16.48475 | 36876 ft | 445 kts | 47° |
| 2026-04-24 17:00 | 57.43853 | 16.62056 | 36867 ft | 444 kts | 47° |
| 2026-04-24 17:01 | 57.49416 | 16.75716 | 36861 ft | 445 kts | 48° |
| 2026-04-24 17:02 | 57.54978 | 16.89447 | 36868 ft | 444 kts | 48° |
| 2026-04-24 17:02 | 57.58671 | 16.98592 | 36872 ft | 443 kts | 48° |
| 2026-04-24 17:03 | 57.64215 | 17.12382 | 36875 ft | 444 kts | 48° |
| 2026-04-24 17:04 | 57.67896 | 17.21584 | 36877 ft | 444 kts | 48° |
| 2026-04-24 17:04 | 57.73395 | 17.35397 | 36913 ft | 443 kts | 49° |
| 2026-04-24 17:05 | 57.77047 | 17.44611 | 36885 ft | 443 kts | 48° |
| 2026-04-24 17:06 | 57.82502 | 17.58439 | 36881 ft | 443 kts | 49° |
| 2026-04-24 17:06 | 57.87947 | 17.72345 | 36880 ft | 443 kts | 50° |
| 2026-04-24 17:07 | 57.91566 | 17.81648 | 36886 ft | 443 kts | 50° |
| 2026-04-24 17:08 | 57.98793 | 18.00287 | 36886 ft | 442 kts | 50° |
| 2026-04-24 17:08 | 58.02402 | 18.09649 | 36889 ft | 442 kts | 50° |
| 2026-04-24 17:09 | 58.09575 | 18.28360 | 36889 ft | 442 kts | 50° |
| 2026-04-24 17:10 | 58.16762 | 18.47148 | 36889 ft | 442 kts | 50° |
| 2026-04-24 17:12 | 58.30977 | 18.84984 | 36882 ft | 443 kts | 51° |